Time;durP1;ratioP1;P1;durP2;ratioP2;P2;SDS_P1;SDS_P2;PMS_P1;PMS_P2;Temp;Humidity;BMP_temperature;BMP_pressure;BME280_temperature;BME280_humidity;BME280_pressure;Samples;Min_cycle;Max_cycle;Signal;HPM_P1;HPM_P2
2021/12/31 00:02:11;;;;;;;1.15;0.60;;;;;;;18.70;51.96;96033.94;5024059;28;20494;-63
2021/12/31 00:04:36;;;;;;;0.65;0.50;;;;;;;17.80;53.99;96038.03;4992250;28;20101;-63
2021/12/31 00:07:02;;;;;;;1.45;0.40;;;;;;;17.93;53.36;96022.75;5009850;28;20105;-62
2021/12/31 00:09:27;;;;;;;0.63;0.30;;;;;;;18.33;53.28;96035.72;4991421;28;20463;-62
2021/12/31 00:11:53;;;;;;;1.15;0.60;;;;;;;18.12;53.61;96055.38;5009924;28;20652;-63
2021/12/31 00:14:20;;;;;;;0.50;0.50;;;;;;;19.00;51.34;96020.28;5014728;28;20376;-63
2021/12/31 00:16:46;;;;;;;0.75;0.50;;;;;;;18.59;51.78;96030.06;5008420;28;20025;-63
2021/12/31 00:19:13;;;;;;;1.08;0.77;;;;;;;18.31;52.79;96022.56;5009117;28;20028;-61
2021/12/31 00:21:41;;;;;;;1.15;0.60;;;;;;;19.06;51.50;96056.69;4992168;28;20021;-62
2021/12/31 00:24:06;;;;;;;0.50;0.50;;;;;;;19.47;50.53;96044.88;5009655;28;20052;-63
2021/12/31 00:26:32;;;;;;;1.27;0.45;;;;;;;19.66;50.06;96055.91;4992131;28;20496;-62
2021/12/31 00:28:57;;;;;;;0.60;0.60;;;;;;;19.59;49.34;96050.28;5010973;28;20056;-62
2021/12/31 00:31:22;;;;;;;0.40;0.40;;;;;;;19.74;49.09;96051.50;5026778;28;20101;-62
2021/12/31 00:33:49;;;;;;;0.63;0.60;;;;;;;19.81;48.79;96045.53;5013491;28;20033;-62
2021/12/31 00:36:15;;;;;;;0.95;0.63;;;;;;;19.94;48.76;96055.19;4996306;28;20033;-63
2021/12/31 00:38:40;;;;;;;0.80;0.40;;;;;;;19.88;48.73;96059.25;5013295;28;20025;-62
2021/12/31 00:41:06;;;;;;;0.30;0.30;;;;;;;19.89;48.41;96061.59;5013287;28;20022;-62
2021/12/31 00:43:31;;;;;;;0.30;0.30;;;;;;;19.70;48.76;96064.09;5013117;28;20361;-63
2021/12/31 00:45:56;;;;;;;0.55;0.32;;;;;;;19.65;48.66;96057.00;5029802;28;20103;-60
2021/12/31 00:48:22;;;;;;;0.60;0.30;;;;;;;19.43;49.09;96057.47;5024691;28;20025;-61
2021/12/31 00:50:47;;;;;;;0.75;0.30;;;;;;;19.80;48.68;96055.53;5032843;28;20030;-61
2021/12/31 00:53:13;;;;;;;0.85;0.40;;;;;;;19.50;49.26;96057.69;5015546;28;20672;-63
2021/12/31 00:55:38;;;;;;;1.40;0.40;;;;;;;19.18;49.31;96032.41;5033169;28;20028;-62
2021/12/31 00:58:05;;;;;;;1.17;0.45;;;;;;;19.30;49.77;96055.91;5032916;28;20029;-63
2021/12/31 01:00:31;;;;;;;0.50;0.32;;;;;;;18.66;51.17;96079.59;5028989;28;20033;-63
2021/12/31 01:02:56;;;;;;;0.65;0.50;;;;;;;19.26;49.95;96060.41;5023755;28;20365;-63
2021/12/31 01:05:22;;;;;;;0.50;0.30;;;;;;;19.13;50.17;96038.81;5032999;28;20037;-63
2021/12/31 01:07:47;;;;;;;0.50;0.50;;;;;;;19.54;49.56;96072.06;5032664;28;20025;-63
2021/12/31 01:10:15;;;;;;;0.65;0.40;;;;;;;19.15;49.76;96051.97;5032183;28;20551;-63
2021/12/31 01:12:42;;;;;;;0.30;0.30;;;;;;;19.47;49.67;96067.25;5015172;28;20025;-62
2021/12/31 01:15:58;;;;;;;0.77;0.32;;;;;;;19.71;49.07;96061.06;5029942;28;20017;-63
2021/12/31 01:20:21;;;;;;;0.30;0.30;;;;;;;19.64;48.87;96058.16;5032255;28;20033;-62
2021/12/31 01:22:47;;;;;;;0.30;0.30;;;;;;;19.80;48.54;96074.44;5032718;28;20356;-62
2021/12/31 01:25:13;;;;;;;0.63;0.63;;;;;;;19.46;48.85;96081.88;5032917;28;20028;-62
2021/12/31 01:27:39;;;;;;;1.75;0.68;;;;;;;19.51;48.87;96077.38;5032585;28;20475;-62
2021/12/31 01:30:07;;;;;;;0.63;0.40;;;;;;;19.77;48.76;96077.81;5029661;28;20227;-63
2021/12/31 01:32:33;;;;;;;0.30;0.30;;;;;;;19.83;48.73;96075.69;5030459;28;20053;-63
2021/12/31 01:34:59;;;;;;;0.82;0.40;;;;;;;19.93;48.47;96081.41;5024278;28;20060;-63
2021/12/31 01:37:24;;;;;;;0.32;0.30;;;;;;;19.96;48.39;96078.03;5032530;28;20491;-63
2021/12/31 01:39:50;;;;;;;0.38;0.38;;;;;;;19.83;48.57;96070.28;5031614;28;20018;-63
2021/12/31 01:42:18;;;;;;;2.33;0.45;;;;;;;19.85;48.57;96074.19;5032515;28;20030;-62
2021/12/31 01:44:52;;;;;;;1.60;0.25;;;;;;;19.18;49.55;96053.97;5023074;28;20033;-63
2021/12/31 01:47:22;;;;;;;1.15;0.50;;;;;;;19.34;49.15;96048.69;5030113;28;20122;-63
2021/12/31 01:49:59;;;;;;;0.40;0.40;;;;;;;19.52;49.18;96071.63;5005646;28;20037;-63
2021/12/31 01:52:25;;;;;;;0.50;0.50;;;;;;;19.69;48.92;96062.53;5032318;28;20465;-61
2021/12/31 01:54:51;;;;;;;0.20;0.20;;;;;;;19.55;48.82;96065.56;5032223;28;20096;-63
2021/12/31 01:57:18;;;;;;;0.47;0.38;;;;;;;19.73;48.73;96082.31;5032259;28;20479;-61
2021/12/31 01:59:44;;;;;;;0.90;0.50;;;;;;;19.74;48.51;96065.78;5024197;28;20041;-63
2021/12/31 02:02:10;;;;;;;0.30;0.30;;;;;;;19.71;48.47;96058.38;5029496;28;20030;-63
2021/12/31 02:04:39;;;;;;;0.85;0.60;;;;;;;19.43;48.90;96058.25;5023650;28;20025;-62
2021/12/31 02:07:06;;;;;;;0.75;0.50;;;;;;;19.77;48.70;96071.66;5031980;28;20104;-63
2021/12/31 02:09:36;;;;;;;0.38;0.30;;;;;;;19.89;48.32;96074.31;5031033;28;20033;-63
2021/12/31 02:12:01;;;;;;;0.40;0.40;;;;;;;19.92;48.21;96068.25;5031726;28;20025;-63
2021/12/31 02:14:27;;;;;;;0.40;0.30;;;;;;;20.05;48.21;96071.69;5026700;28;20748;-62
2021/12/31 02:16:53;;;;;;;0.40;0.30;;;;;;;19.95;47.97;96075.66;5027705;28;20026;-62
2021/12/31 02:19:27;;;;;;;0.45;0.38;;;;;;;19.79;47.99;96078.25;5004912;28;20033;-62
2021/12/31 02:21:52;;;;;;;0.95;0.73;;;;;;;19.80;48.18;96070.94;5031682;28;20026;-63
2021/12/31 02:24:19;;;;;;;0.50;0.50;;;;;;;19.82;48.26;96064.09;5031573;28;20026;-63
2021/12/31 02:26:44;;;;;;;0.38;0.35;;;;;;;19.85;48.15;96089.63;5031445;28;20029;-62
2021/12/31 02:29:10;;;;;;;1.02;0.40;;;;;;;19.69;47.88;96059.84;5028539;28;20035;-63
2021/12/31 02:31:36;;;;;;;0.93;0.70;;;;;;;19.81;48.08;96083.31;5025503;28;20045;-61
2021/12/31 02:34:02;;;;;;;1.38;0.57;;;;;;;19.49;48.74;96088.50;5022866;28;20063;-61
2021/12/31 02:36:27;;;;;;;0.40;0.40;;;;;;;19.62;48.17;96063.09;5013442;28;20105;-61
2021/12/31 02:38:53;;;;;;;0.90;0.50;;;;;;;19.71;47.93;96066.47;5030835;28;20032;-63
2021/12/31 02:41:18;;;;;;;0.40;0.40;;;;;;;19.66;48.01;96041.63;5031006;28;20059;-63
2021/12/31 02:43:44;;;;;;;1.08;0.50;;;;;;;19.84;47.82;96066.44;5031143;28;20084;-62
2021/12/31 02:46:09;;;;;;;0.85;0.43;;;;;;;19.95;47.87;96075.66;5024337;28;20036;-63
2021/12/31 02:48:34;;;;;;;2.05;0.60;;;;;;;19.92;47.57;96073.66;5021710;28;20404;-63
2021/12/31 02:51:02;;;;;;;0.73;0.40;;;;;;;19.99;47.67;96071.13;5029674;28;20084;-63
2021/12/31 02:53:35;;;;;;;0.95;0.50;;;;;;;20.07;47.44;96074.84;5031057;28;20394;-63
2021/12/31 02:56:05;;;;;;;0.77;0.57;;;;;;;20.06;47.28;96075.94;5030929;28;20045;-63
2021/12/31 02:58:31;;;;;;;0.77;0.65;;;;;;;20.02;47.39;96064.28;5012732;28;20687;-63
2021/12/31 03:00:57;;;;;;;0.90;0.60;;;;;;;20.06;47.22;96076.75;5024220;28;20484;-63
2021/12/31 03:03:24;;;;;;;1.17;0.70;;;;;;;20.06;47.31;96070.56;5023307;28;20029;-63
2021/12/31 03:05:53;;;;;;;1.10;0.50;;;;;;;19.97;47.17;96060.69;5028865;28;20056;-62
2021/12/31 03:08:21;;;;;;;0.98;0.50;;;;;;;20.00;47.48;96068.09;5030292;28;20022;-61
2021/12/31 03:10:48;;;;;;;0.60;0.60;;;;;;;19.98;47.27;96066.88;5030126;28;20391;-62
2021/12/31 03:13:16;;;;;;;0.77;0.70;;;;;;;19.98;47.28;96056.06;5030466;28;20507;-61
2021/12/31 03:15:41;;;;;;;0.77;0.50;;;;;;;19.84;47.59;96039.44;5025018;28;20032;-61
2021/12/31 03:18:09;;;;;;;0.60;0.60;;;;;;;19.94;47.47;96060.56;5024912;28;20021;-61
2021/12/31 03:20:42;;;;;;;1.08;0.50;;;;;;;19.81;47.55;96034.72;5026031;28;20486;-61
2021/12/31 03:23:08;;;;;;;1.80;0.70;;;;;;;19.89;47.71;96044.63;5012704;28;20087;-61
2021/12/31 03:25:33;;;;;;;0.70;0.70;;;;;;;19.66;47.59;96039.72;5030675;28;20030;-61
2021/12/31 03:27:59;;;;;;;1.42;0.70;;;;;;;19.79;47.92;96050.47;5012415;28;20033;-61
2021/12/31 03:30:26;;;;;;;1.00;0.70;;;;;;;19.69;48.06;96040.94;5025738;28;20581;-61
2021/12/31 03:32:51;;;;;;;1.00;0.60;;;;;;;19.13;47.53;95959.81;5025828;28;20029;-61
2021/12/31 03:35:17;;;;;;;0.85;0.70;;;;;;;19.75;47.94;96047.66;5023826;28;20029;-61
2021/12/31 03:37:42;;;;;;;0.60;0.60;;;;;;;19.69;47.99;96028.22;5030138;28;20071;-61
2021/12/31 03:40:08;;;;;;;0.65;0.65;;;;;;;19.80;48.09;96044.72;5029406;28;20030;-63
2021/12/31 03:42:33;;;;;;;0.68;0.68;;;;;;;19.65;47.89;96021.94;5029985;28;21187;-63
2021/12/31 03:44:59;;;;;;;1.00;0.75;;;;;;;19.74;48.11;96041.50;5026660;28;20108;-63
2021/12/31 03:47:24;;;;;;;0.73;0.73;;;;;;;19.62;48.05;96022.63;5027161;28;20079;-63
2021/12/31 03:49:50;;;;;;;1.85;0.70;;;;;;;19.71;48.23;96044.88;5019825;28;20033;-63
2021/12/31 03:52:15;;;;;;;0.82;0.82;;;;;;;19.74;48.06;96046.88;5029411;28;20036;-63
2021/12/31 03:54:41;;;;;;;2.15;1.00;;;;;;;19.63;48.02;96040.38;5029918;28;20104;-63
2021/12/31 03:57:06;;;;;;;2.05;0.90;;;;;;;19.55;48.00;96022.41;5029845;28;20025;-63
2021/12/31 03:59:32;;;;;;;1.20;1.00;;;;;;;19.49;48.14;96019.13;5027353;28;20029;-62
2021/12/31 04:01:57;;;;;;;0.70;0.70;;;;;;;19.57;48.16;96033.63;5026501;28;20025;-61
2021/12/31 04:04:22;;;;;;;1.13;1.02;;;;;;;19.62;48.12;96027.25;5021376;28;20021;-63
2021/12/31 04:06:48;;;;;;;2.05;1.48;;;;;;;19.54;48.12;96020.00;5029686;28;20028;-61
2021/12/31 04:09:13;;;;;;;1.85;1.08;;;;;;;19.36;48.16;95993.28;5028257;28;20846;-61
2021/12/31 04:11:39;;;;;;;0.77;0.75;;;;;;;19.48;48.12;96005.97;5029707;28;20033;-61
2021/12/31 04:14:04;;;;;;;0.98;0.90;;;;;;;19.50;47.98;96009.13;5029718;28;20104;-62
2021/12/31 04:16:30;;;;;;;1.02;0.85;;;;;;;19.38;48.08;96009.13;5026154;28;20379;-61
2021/12/31 04:18:56;;;;;;;1.90;0.77;;;;;;;19.42;48.25;96018.91;5018503;28;20030;-62
2021/12/31 04:21:23;;;;;;;0.88;0.80;;;;;;;19.48;48.17;96019.47;5011696;28;20057;-62
2021/12/31 04:24:04;;;;;;;0.63;0.60;;;;;;;19.41;48.29;95997.69;5029995;28;20021;-61
2021/12/31 04:26:29;;;;;;;1.73;0.77;;;;;;;19.45;48.19;96002.06;5029543;28;20031;-62
2021/12/31 04:28:54;;;;;;;0.60;0.60;;;;;;;19.52;48.39;96014.97;5028885;28;20156;-62
2021/12/31 04:31:20;;;;;;;0.80;0.80;;;;;;;19.41;48.13;95986.88;5026476;28;20029;-62
2021/12/31 04:33:45;;;;;;;1.02;0.93;;;;;;;19.45;48.35;95995.88;5026958;28;20025;-61
2021/12/31 04:36:11;;;;;;;1.48;0.90;;;;;;;19.53;48.22;96003.03;5029688;28;20025;-62
2021/12/31 04:38:37;;;;;;;0.82;0.70;;;;;;;19.53;48.16;95994.94;5029148;28;20036;-62
2021/12/31 04:41:03;;;;;;;0.80;0.80;;;;;;;19.58;47.92;96002.03;5028906;28;20029;-62
2021/12/31 04:43:28;;;;;;;0.98;0.90;;;;;;;19.49;47.85;95988.66;5029306;28;20029;-61
2021/12/31 04:45:54;;;;;;;1.00;0.90;;;;;;;19.56;48.13;96006.97;5027092;28;20451;-61
2021/12/31 04:48:19;;;;;;;1.80;1.02;;;;;;;19.43;48.22;95995.41;5026519;28;20039;-61
2021/12/31 04:50:45;;;;;;;1.17;1.08;;;;;;;19.48;48.04;95992.47;5011531;28;20069;-62
2021/12/31 04:53:10;;;;;;;1.45;0.82;;;;;;;19.43;48.03;95990.78;5009529;28;20038;-63
2021/12/31 04:55:35;;;;;;;0.90;0.90;;;;;;;19.54;47.86;95998.44;5009765;28;20084;-63
2021/12/31 04:58:01;;;;;;;1.17;0.85;;;;;;;19.03;47.89;95920.59;4991894;28;20037;-62
2021/12/31 05:00:26;;;;;;;0.80;0.80;;;;;;;19.52;47.68;96000.69;5008783;28;20022;-63
2021/12/31 05:02:52;;;;;;;1.05;1.00;;;;;;;19.23;47.63;95957.44;5007495;28;20022;-62
2021/12/31 05:05:17;;;;;;;1.10;0.80;;;;;;;19.31;47.95;95981.94;5020922;28;20037;-63
2021/12/31 05:07:42;;;;;;;1.88;0.90;;;;;;;19.14;47.80;95962.19;5029051;28;20096;-61
2021/12/31 05:10:09;;;;;;;0.80;0.80;;;;;;;19.11;48.04;95991.72;5028318;28;20471;-64
2021/12/31 05:12:37;;;;;;;1.77;1.00;;;;;;;18.99;48.21;95997.91;5011495;28;20626;-63
2021/12/31 05:15:06;;;;;;;1.60;1.10;;;;;;;18.84;48.34;96007.47;5026262;28;20071;-63
2021/12/31 05:17:32;;;;;;;1.60;1.05;;;;;;;18.52;48.71;95994.78;5023093;28;20399;-63
2021/12/31 05:19:57;;;;;;;1.25;1.15;;;;;;;18.42;48.91;96010.25;5019619;28;20034;-63
2021/12/31 05:22:22;;;;;;;1.10;1.00;;;;;;;18.15;49.08;95983.91;5032787;28;20021;-62
2021/12/31 05:24:48;;;;;;;1.92;1.10;;;;;;;17.97;49.39;95988.69;5015331;28;20098;-62
2021/12/31 05:27:13;;;;;;;2.70;1.33;;;;;;;17.85;49.80;95989.38;5015032;28;20065;-62
2021/12/31 05:29:39;;;;;;;1.33;1.20;;;;;;;17.97;49.97;96007.53;5031925;28;20113;-63
2021/12/31 05:32:05;;;;;;;2.67;1.48;;;;;;;17.90;50.11;95994.56;5023945;28;20387;-62
2021/12/31 05:34:30;;;;;;;1.77;1.67;;;;;;;18.02;50.01;96001.16;5006524;28;20184;-62
2021/12/31 05:36:55;;;;;;;1.35;1.20;;;;;;;18.13;50.05;96007.69;5031534;28;20063;-63
2021/12/31 05:39:21;;;;;;;1.52;1.42;;;;;;;18.03;49.83;95987.34;5031824;28;20078;-63
2021/12/31 05:41:46;;;;;;;1.33;1.23;;;;;;;17.93;49.47;95958.16;5032529;28;20025;-62
2021/12/31 05:44:12;;;;;;;0.98;0.98;;;;;;;18.19;49.79;96009.06;5032533;28;20021;-63
2021/12/31 05:46:37;;;;;;;2.25;1.20;;;;;;;18.16;49.80;95999.72;5024429;28;20081;-63
2021/12/31 05:49:03;;;;;;;0.85;0.85;;;;;;;18.31;49.63;96006.41;5026637;28;20022;-62
2021/12/31 05:51:30;;;;;;;1.42;1.02;;;;;;;18.42;49.28;96006.75;5027492;28;20391;-62
2021/12/31 05:53:56;;;;;;;1.08;0.98;;;;;;;18.41;49.21;95997.13;5032197;28;20408;-63
2021/12/31 05:56:21;;;;;;;1.20;1.10;;;;;;;18.52;49.11;96011.72;5032176;28;20032;-62
2021/12/31 05:58:46;;;;;;;0.95;0.80;;;;;;;18.56;48.92;96007.25;5031837;28;20028;-63
2021/12/31 06:01:12;;;;;;;0.80;0.65;;;;;;;18.42;48.99;95979.81;5025232;28;20346;-62
2021/12/31 06:03:37;;;;;;;1.83;0.82;;;;;;;18.61;48.57;96007.03;5029410;28;20033;-63
2021/12/31 06:06:02;;;;;;;0.90;0.90;;;;;;;18.56;48.42;96004.56;5005869;28;20028;-62
2021/12/31 06:08:28;;;;;;;0.80;0.80;;;;;;;18.43;48.47;95987.59;5031595;28;20022;-63
2021/12/31 06:10:53;;;;;;;1.90;0.70;;;;;;;18.40;48.41;95993.63;5013541;28;20129;-63
2021/12/31 06:13:19;;;;;;;0.90;0.80;;;;;;;18.37;48.63;95985.44;5031909;28;20061;-63
2021/12/31 06:15:47;;;;;;;1.20;1.00;;;;;;;18.41;48.86;95997.13;5025834;28;20399;-63
2021/12/31 06:18:12;;;;;;;1.10;1.00;;;;;;;18.56;48.41;96006.47;5028846;28;20017;-63
2021/12/31 06:20:41;;;;;;;0.60;0.60;;;;;;;18.58;48.29;96010.41;5014731;28;20080;-63
2021/12/31 06:23:06;;;;;;;0.93;0.80;;;;;;;18.49;48.31;95992.78;5011828;28;20052;-63
2021/12/31 06:25:32;;;;;;;1.42;0.80;;;;;;;18.55;48.25;96008.38;5011612;28;20041;-63
2021/12/31 06:27:59;;;;;;;1.10;0.82;;;;;;;18.50;48.45;96005.91;5011246;28;20026;-61
2021/12/31 06:30:25;;;;;;;1.15;0.85;;;;;;;18.13;48.59;96005.78;5010531;28;20073;-63
2021/12/31 06:32:50;;;;;;;0.80;0.80;;;;;;;18.16;48.82;96005.09;5026716;28;20033;-62
2021/12/31 06:35:16;;;;;;;1.35;0.70;;;;;;;18.29;48.82;96010.56;5023092;28;20029;-62
2021/12/31 06:37:41;;;;;;;3.72;1.00;;;;;;;18.25;48.57;96001.56;5031351;28;20579;-62
2021/12/31 06:40:07;;;;;;;0.85;0.85;;;;;;;18.44;48.44;96018.00;5013127;28;20033;-61
2021/12/31 06:42:34;;;;;;;0.70;0.70;;;;;;;18.51;48.28;96020.16;5031263;28;20033;-62
2021/12/31 06:45:00;;;;;;;0.75;0.52;;;;;;;18.51;48.24;96020.16;5013568;28;20025;-62
2021/12/31 06:47:25;;;;;;;0.80;0.80;;;;;;;18.49;48.54;96025.88;5025191;28;20040;-62
2021/12/31 06:49:50;;;;;;;0.80;0.80;;;;;;;18.38;48.24;96005.88;5003155;28;20033;-62
2021/12/31 06:52:16;;;;;;;0.60;0.60;;;;;;;18.49;47.99;96020.50;5031086;28;20087;-62
2021/12/31 06:54:41;;;;;;;0.85;0.68;;;;;;;18.38;48.09;96040.88;5031313;28;20100;-62
2021/12/31 06:57:06;;;;;;;1.05;0.80;;;;;;;18.28;47.99;96019.75;5031027;28;20407;-62
2021/12/31 06:59:32;;;;;;;0.80;0.80;;;;;;;18.55;47.96;96029.16;5030363;28;20040;-62
2021/12/31 07:01:57;;;;;;;2.17;0.77;;;;;;;18.65;47.79;96040.28;5025315;28;20120;-61
2021/12/31 07:04:23;;;;;;;1.33;0.90;;;;;;;18.50;47.96;96005.91;5005352;28;20026;-62
2021/12/31 07:06:48;;;;;;;0.70;0.70;;;;;;;18.62;47.69;96032.84;5028646;28;20029;-62
2021/12/31 07:09:14;;;;;;;0.60;0.60;;;;;;;18.42;47.56;96012.94;5029900;28;20048;-62
2021/12/31 07:11:39;;;;;;;1.23;0.90;;;;;;;18.45;47.79;96017.66;5030620;28;20030;-62
2021/12/31 07:14:05;;;;;;;0.98;0.73;;;;;;;18.36;48.01;96021.56;5012557;28;20491;-62
2021/12/31 07:16:30;;;;;;;0.80;0.70;;;;;;;18.14;48.09;95991.19;5026780;28;20032;-61
2021/12/31 07:18:56;;;;;;;0.90;0.90;;;;;;;18.05;48.18;95997.78;5025232;28;20499;-62
2021/12/31 07:21:21;;;;;;;1.15;1.05;;;;;;;17.98;48.29;96003.69;5024398;28;20434;-61
2021/12/31 07:23:46;;;;;;;1.17;0.90;;;;;;;17.86;48.35;95998.25;5030378;28;20031;-61
2021/12/31 07:26:12;;;;;;;0.93;0.93;;;;;;;17.83;48.60;96010.47;5012819;28;20064;-61
2021/12/31 07:28:37;;;;;;;0.90;0.90;;;;;;;17.67;48.82;96007.56;5029841;28;20053;-61
2021/12/31 07:33:32;;;;;;;1.48;1.38;;;;;;;17.66;49.01;96011.38;5028929;28;20053;-72
2021/12/31 07:35:59;;;;;;;1.85;0.93;;;;;;;17.65;49.02;96025.91;5030442;28;20029;-70
2021/12/31 07:38:31;;;;;;;0.98;0.95;;;;;;;17.60;49.12;96028.78;5029813;28;20030;-71
2021/12/31 07:40:57;;;;;;;1.15;0.98;;;;;;;17.57;49.11;96031.38;5030241;28;20029;-73
2021/12/31 07:43:23;;;;;;;1.83;0.80;;;;;;;17.47;49.29;96029.84;5011991;28;20386;-69
2021/12/31 07:45:49;;;;;;;1.88;0.88;;;;;;;17.41;49.36;96028.47;5029768;28;20724;-70
2021/12/31 07:48:15;;;;;;;0.90;0.90;;;;;;;17.31;49.86;96018.88;5030148;28;20022;-70
2021/12/31 07:50:40;;;;;;;1.13;0.80;;;;;;;17.29;49.79;96017.59;5029815;28;20040;-68
2021/12/31 07:53:06;;;;;;;0.95;0.88;;;;;;;17.26;49.71;96013.69;5012253;28;20116;-67
2021/12/31 07:55:34;;;;;;;0.77;0.73;;;;;;;17.34;49.80;96025.47;5030212;28;20060;-68
2021/12/31 07:57:59;;;;;;;1.17;0.80;;;;;;;17.33;49.62;96026.59;5012216;28;20178;-68
2021/12/31 08:00:26;;;;;;;0.90;0.90;;;;;;;17.31;49.87;96026.16;5029287;28;20021;-69
2021/12/31 08:02:55;;;;;;;0.98;0.98;;;;;;;17.34;49.71;96028.16;5011934;28;20018;-69
2021/12/31 08:05:21;;;;;;;0.75;0.70;;;;;;;17.36;49.60;96025.97;5012633;28;20083;-72
2021/12/31 08:07:47;;;;;;;1.35;0.85;;;;;;;17.30;49.76;96027.25;5030026;28;20028;-66
2021/12/31 08:10:12;;;;;;;0.93;0.88;;;;;;;17.32;49.80;96027.72;5011254;28;20149;-69
2021/12/31 08:12:38;;;;;;;0.80;0.73;;;;;;;17.33;50.00;96034.66;5011898;28;20041;-69
2021/12/31 08:15:04;;;;;;;1.30;1.00;;;;;;;17.46;49.91;96033.66;5029692;28;20034;-71
2021/12/31 08:17:30;;;;;;;1.10;1.00;;;;;;;17.67;49.76;96044.44;5010954;28;20026;-67
2021/12/31 08:19:55;;;;;;;0.93;0.75;;;;;;;17.96;49.16;96043.59;5010961;28;20051;-71
2021/12/31 08:22:24;;;;;;;1.80;1.00;;;;;;;18.24;48.75;96051.16;5029391;28;20049;-67
2021/12/31 08:24:51;;;;;;;1.55;1.00;;;;;;;18.47;48.66;96049.66;5012037;28;20030;-69
2021/12/31 08:27:16;;;;;;;1.60;0.90;;;;;;;18.68;48.02;96055.03;5029344;28;20063;-69
2021/12/31 08:29:42;;;;;;;0.85;0.80;;;;;;;18.91;47.56;96060.81;5029207;28;20101;-69
2021/12/31 08:32:07;;;;;;;1.00;0.90;;;;;;;19.06;46.82;96049.38;5011330;28;20026;-68
2021/12/31 08:34:33;;;;;;;0.73;0.73;;;;;;;19.16;46.63;96048.94;5011983;28;20021;-68
2021/12/31 08:36:58;;;;;;;0.95;0.85;;;;;;;19.26;46.00;96049.63;5029511;28;20699;-68
2021/12/31 08:39:24;;;;;;;0.93;0.70;;;;;;;19.31;45.78;96044.00;5028841;28;20033;-68
2021/12/31 08:41:49;;;;;;;2.10;1.17;;;;;;;19.48;45.76;96047.22;5011856;28;20057;-69
2021/12/31 08:44:16;;;;;;;0.90;0.90;;;;;;;19.60;45.45;96043.75;5011859;28;20068;-69
2021/12/31 08:46:42;;;;;;;1.92;1.17;;;;;;;19.69;45.21;96036.31;5028609;28;20022;-67
2021/12/31 08:49:07;;;;;;;1.17;0.70;;;;;;;19.86;45.12;96048.78;5028295;28;20037;-69
2021/12/31 08:51:33;;;;;;;0.90;0.80;;;;;;;19.91;44.76;96039.66;5028916;28;20036;-67
2021/12/31 08:53:58;;;;;;;1.83;0.77;;;;;;;20.05;44.47;96031.97;5029634;28;20021;-67
2021/12/31 08:56:23;;;;;;;0.93;0.77;;;;;;;20.22;44.25;96030.91;5033294;28;20021;-68
2021/12/31 08:58:49;;;;;;;1.25;0.90;;;;;;;20.40;43.95;96036.78;5032832;28;20034;-68
2021/12/31 09:01:14;;;;;;;1.08;0.90;;;;;;;20.35;44.25;96016.19;5032432;28;20120;-67
2021/12/31 09:03:40;;;;;;;1.55;1.08;;;;;;;20.19;43.79;96018.84;5032715;28;20047;-66
2021/12/31 09:06:06;;;;;;;1.33;0.70;;;;;;;20.41;43.55;96031.03;5015290;28;20112;-64
2021/12/31 09:08:33;;;;;;;0.75;0.70;;;;;;;20.54;43.72;96020.97;5032859;28;20025;-63
2021/12/31 09:10:59;;;;;;;1.85;0.90;;;;;;;20.42;43.87;96012.88;5015011;28;20025;-66
2021/12/31 09:13:26;;;;;;;1.00;0.60;;;;;;;20.40;43.82;96018.66;5033014;28;20482;-67
2021/12/31 09:15:52;;;;;;;1.05;0.75;;;;;;;20.47;43.67;96018.06;5032773;28;20497;-70
2021/12/31 09:18:18;;;;;;;1.35;0.70;;;;;;;20.47;43.60;95996.47;5009620;28;20112;-68
2021/12/31 09:20:43;;;;;;;1.25;0.90;;;;;;;20.42;43.45;96002.91;5032511;28;20045;-68
2021/12/31 09:23:08;;;;;;;3.92;1.60;;;;;;;20.53;43.55;96014.00;5033217;28;20061;-70
2021/12/31 09:25:34;;;;;;;1.67;1.15;;;;;;;20.50;43.24;96020.09;5015019;28;20026;-67
2021/12/31 09:27:59;;;;;;;1.33;1.00;;;;;;;20.28;43.64;95999.81;5014606;28;20071;-67
2021/12/31 09:30:25;;;;;;;0.75;0.70;;;;;;;20.22;43.69;96014.69;5031824;28;20066;-67
2021/12/31 09:32:50;;;;;;;0.75;0.75;;;;;;;20.07;43.93;96024.31;5032013;28;20121;-69
2021/12/31 09:35:16;;;;;;;0.80;0.70;;;;;;;19.86;44.25;96004.78;5032115;28;20036;-68
2021/12/31 09:37:41;;;;;;;0.98;0.70;;;;;;;19.81;44.22;96016.63;5032962;28;20022;-67
2021/12/31 09:40:08;;;;;;;1.08;0.80;;;;;;;19.72;44.30;96015.97;5032451;28;20033;-66
2021/12/31 09:42:33;;;;;;;0.70;0.63;;;;;;;19.70;44.62;96029.00;5014816;28;20018;-66
2021/12/31 09:44:59;;;;;;;0.52;0.52;;;;;;;19.56;44.98;96039.38;5032376;28;20049;-75
2021/12/31 09:47:24;;;;;;;0.55;0.55;;;;;;;19.35;45.25;96031.41;5013778;28;20056;-68
2021/12/31 09:49:50;;;;;;;0.90;0.70;;;;;;;19.36;45.45;96028.38;5031066;28;20021;-70
2021/12/31 09:52:17;;;;;;;0.63;0.40;;;;;;;19.23;45.43;96040.25;5032195;28;20025;-71
2021/12/31 09:54:47;;;;;;;0.50;0.50;;;;;;;19.18;45.58;96024.31;5032070;28;20105;-66
2021/12/31 09:57:18;;;;;;;0.40;0.40;;;;;;;19.14;45.69;96010.72;5032066;28;20022;-65
2021/12/31 09:59:46;;;;;;;2.00;0.55;;;;;;;18.84;48.43;96033.63;5011977;28;20029;-64
2021/12/31 10:02:12;;;;;;;1.17;0.55;;;;;;;18.80;47.17;96048.88;5013420;28;20507;-61
2021/12/31 10:04:58;;;;;;;0.47;0.40;;;;;;;17.82;49.40;96051.19;5031736;28;20080;-66
2021/12/31 10:07:24;;;;;;;0.38;0.38;;;;;;;17.99;48.58;96029.50;5025227;28;20081;-67
2021/12/31 10:10:15;;;;;;;0.65;0.57;;;;;;;18.30;48.92;96039.84;5030703;28;20428;-63
2021/12/31 10:12:56;;;;;;;1.67;0.45;;;;;;;18.48;48.09;96035.09;5013773;28;20033;-64
2021/12/31 10:15:24;;;;;;;0.60;0.43;;;;;;;17.65;49.46;96038.56;5013829;28;20025;-64
2021/12/31 10:17:50;;;;;;;1.15;0.45;;;;;;;18.21;48.81;96035.66;5030691;28;20648;-64
2021/12/31 10:20:17;;;;;;;0.75;0.40;;;;;;;18.53;47.50;96036.75;5030619;28;20022;-64
2021/12/31 10:22:44;;;;;;;1.08;0.52;;;;;;;18.87;47.02;96035.63;5031546;28;20029;-64
2021/12/31 10:25:22;;;;;;;0.95;0.50;;;;;;;19.26;46.54;96022.63;5031590;28;20025;-64
2021/12/31 10:27:49;;;;;;;0.30;0.30;;;;;;;18.42;47.77;96025.63;5013520;28;20029;-64
2021/12/31 10:30:22;;;;;;;0.80;0.57;;;;;;;18.47;47.28;96011.94;5030834;28;20030;-64
2021/12/31 10:32:48;;;;;;;0.40;0.40;;;;;;;19.08;45.83;96020.16;5030850;28;20030;-65
2021/12/31 10:35:16;;;;;;;0.50;0.50;;;;;;;18.47;46.72;96016.53;5013254;28;20020;-64
2021/12/31 10:37:46;;;;;;;0.30;0.30;;;;;;;18.35;47.37;96007.31;5013229;28;20113;-64
2021/12/31 10:40:24;;;;;;;0.40;0.40;;;;;;;17.89;48.65;96019.13;5012740;28;20029;-64
2021/12/31 10:42:49;;;;;;;1.13;0.65;;;;;;;18.59;46.51;96009.28;5013299;28;20771;-65
2021/12/31 10:45:15;;;;;;;1.20;0.50;;;;;;;18.98;46.15;95985.53;5031105;28;20108;-64
2021/12/31 10:47:48;;;;;;;0.57;0.50;;;;;;;19.47;45.10;95988.22;5012506;28;20539;-64
2021/12/31 10:50:17;;;;;;;0.63;0.63;;;;;;;18.52;45.69;95987.47;5029802;28;20038;-65
2021/12/31 10:52:57;;;;;;;0.30;0.30;;;;;;;18.96;45.25;95985.09;5013603;28;20017;-71
2021/12/31 10:55:29;;;;;;;0.45;0.35;;;;;;;18.67;45.85;95973.34;5013168;28;20040;-68
2021/12/31 10:57:57;;;;;;;0.55;0.40;;;;;;;18.97;45.29;95967.78;5030694;28;20036;-68
2021/12/31 11:00:25;;;;;;;0.28;0.28;;;;;;;18.75;45.54;95966.34;5012574;28;20040;-68
2021/12/31 11:02:50;;;;;;;0.57;0.20;;;;;;;19.23;45.00;95970.94;5011377;28;20506;-68
2021/12/31 11:05:25;;;;;;;0.32;0.32;;;;;;;19.39;44.13;95954.03;5030954;28;20022;-67
2021/12/31 11:07:52;;;;;;;1.45;0.30;;;;;;;19.41;44.59;95955.28;5031244;28;20336;-68
2021/12/31 11:10:24;;;;;;;0.52;0.50;;;;;;;18.54;45.74;95931.38;5012584;28;20037;-68
2021/12/31 11:12:51;;;;;;;;;;;;;;;19.25;45.22;95972.53;5031457;28;20048;-68
2021/12/31 11:15:16;;;;;;;0.20;0.20;;;;;;;17.91;47.25;95965.75;5012532;28;20476;-70
2021/12/31 11:17:42;;;;;;;0.30;0.25;;;;;;;17.62;47.70;95950.47;5014214;28;20044;-67
2021/12/31 11:20:09;;;;;;;0.35;0.30;;;;;;;18.66;46.29;95966.41;5015292;28;20063;-65
2021/12/31 11:22:35;;;;;;;0.40;0.30;;;;;;;19.17;45.11;95963.41;5014774;28;20025;-67
2021/12/31 11:25:27;;;;;;;0.88;0.43;;;;;;;18.47;46.09;95943.81;5030623;28;20034;-66
2021/12/31 11:27:55;;;;;;;0.43;0.40;;;;;;;18.20;47.01;95951.38;5030145;28;20436;-66
2021/12/31 11:30:23;;;;;;;0.63;0.32;;;;;;;19.07;45.11;95948.47;5029399;28;20080;-66
2021/12/31 11:32:56;;;;;;;0.60;0.60;;;;;;;18.10;46.17;95952.59;5010465;28;20037;-67
2021/12/31 11:35:35;;;;;;;1.50;1.40;;;;;;;18.31;46.19;95946.34;5012303;28;20040;-67
2021/12/31 11:38:27;;;;;;;1.27;0.50;;;;;;;18.17;46.90;95950.16;5012340;28;20025;-65